Terminal Aerodrome Forecast
Issued by NWS Albany, NY

Home | Current Version | Previous Version | Text Only | Print | Product List | Glossary On
Versions: 1 2 3 4 5 6 7 8 9 10 11 12 13 14 15
000
FTUS41 KALY 010500
TAFALB
TAF
KALB 010537Z 0106/0206 VRB03KT P6SM SCT015 OVC030
     FM011400 02005KT P6SM VCSH SCT015 OVC025
     FM020000 VRB03KT P6SM BKN030 OVC060=

USA.gov is the U.S. government's official web portal to all federal, state and local government web resources and services.